CCA100 YSSY-ZBAD
Flight info
| Callsign | CCA100 |
|---|---|
| Flight time | N/A |
| Altitude | 40000 |
| Route | RIC H530 SURVO/N0493F340 R340 AMN/N0485F360 A461 NITIP/N0477F380 A461 ZAM A583 BIGEX/N0473F390 A461 BEKOL/K0885S1160 A461 YIN/K0876S1190 A461 BUBDA/K0869S1220 W56 REBIS/K0874S1190 W56 LEBUN W57 BEKDO W157 AVBOX AVBOX5L |
| Aircraft | A343/H-SDE2E3FGHIJ4J5M1RWXY/LB1D1 |
Departure
| Time | 2026-05-01 13:50 |
|---|---|
| Airport | Sydney Kingsford Smith International Airport (YSSY) |
Arrival
| Time | N/A |
|---|---|
| Airport | Beijing Daxing International Airport (ZBAD) |
| Time | Latitude | Longitude | Altitude | Speed | Heading |
|---|---|---|---|---|---|
| 2026-05-01 13:12 | -33.93887 | 151.16651 | 25 ft | 0 kts | 257° |
| 2026-05-01 13:21 | -33.93887 | 151.16652 | 25 ft | 0 kts | 257° |
| 2026-05-01 13:38 | -33.93886 | 151.16654 | 29 ft | 2 kts | 257° |
| 2026-05-01 13:39 | -33.93883 | 151.16674 | 29 ft | 2 kts | 264° |
| 2026-05-01 13:39 | -33.93881 | 151.16694 | 30 ft | 2 kts | 269° |
| 2026-05-01 13:39 | -33.93881 | 151.16714 | 30 ft | 2 kts | 277° |
| 2026-05-01 13:39 | -33.93884 | 151.16733 | 29 ft | 2 kts | 293° |
| 2026-05-01 13:40 | -33.93891 | 151.16751 | 29 ft | 2 kts | 321° |
| 2026-05-01 13:40 | -33.93905 | 151.16763 | 29 ft | 2 kts | 341° |
| 2026-05-01 13:40 | -33.93914 | 151.16767 | 26 ft | 1 kts | 347° |
| 2026-05-01 13:40 | -33.93915 | 151.16767 | 26 ft | 0 kts | 346° |
| 2026-05-01 13:41 | -33.93920 | 151.16768 | 25 ft | 0 kts | 167° |
| 2026-05-01 13:41 | -33.93924 | 151.16769 | 26 ft | 2 kts | 167° |
| 2026-05-01 13:42 | -33.93982 | 151.16786 | 27 ft | 14 kts | 167° |
| 2026-05-01 13:42 | -33.94074 | 151.16813 | 28 ft | 14 kts | 165° |
| 2026-05-01 13:42 | -33.94174 | 151.16844 | 31 ft | 17 kts | 166° |
| 2026-05-01 13:42 | -33.94297 | 151.16882 | 27 ft | 20 kts | 166° |
| 2026-05-01 13:43 | -33.94410 | 151.16949 | 26 ft | 11 kts | 117° |
| 2026-05-01 13:43 | -33.94393 | 151.17048 | 28 ft | 16 kts | 70° |
| 2026-05-01 13:43 | -33.94353 | 151.17214 | 29 ft | 25 kts | 76° |
| 2026-05-01 13:43 | -33.94335 | 151.17359 | 28 ft | 0 kts | 123° |
| 2026-05-01 13:44 | -33.94476 | 151.17358 | 30 ft | 8 kts | 171° |
| 2026-05-01 13:44 | -33.94578 | 151.17383 | 30 ft | 21 kts | 168° |
| 2026-05-01 13:44 | -33.94764 | 151.17429 | 28 ft | 33 kts | 168° |
| 2026-05-01 13:44 | -33.95026 | 151.17498 | 27 ft | 44 kts | 168° |
| 2026-05-01 13:45 | -33.95355 | 151.17581 | 23 ft | 52 kts | 168° |
| 2026-05-01 13:45 | -33.95721 | 151.17675 | 27 ft | 52 kts | 167° |
| 2026-05-01 13:45 | -33.96067 | 151.17769 | 28 ft | 49 kts | 168° |
| 2026-05-01 13:45 | -33.96359 | 151.17844 | 27 ft | 35 kts | 168° |
| 2026-05-01 13:46 | -33.96418 | 151.17872 | 27 ft | 0 kts | 146° |
| 2026-05-01 13:47 | -33.96431 | 151.17892 | 27 ft | 4 kts | 122° |
| 2026-05-01 13:47 | -33.96437 | 151.17936 | 27 ft | 8 kts | 89° |
| 2026-05-01 13:48 | -33.96420 | 151.18020 | 28 ft | 12 kts | 73° |
| 2026-05-01 13:48 | -33.96367 | 151.18051 | 28 ft | 10 kts | 356° |
| 2026-05-01 13:48 | -33.96348 | 151.18045 | 28 ft | 0 kts | 346° |
| 2026-05-01 13:49 | -33.96228 | 151.18010 | 28 ft | 44 kts | 347° |
| 2026-05-01 13:49 | -33.95773 | 151.17894 | 28 ft | 89 kts | 348° |
| 2026-05-01 13:49 | -33.95027 | 151.17701 | 25 ft | 129 kts | 347° |
| 2026-05-01 13:50 | -33.94039 | 151.17446 | 24 ft | 161 kts | 347° |
| 2026-05-01 13:50 | -33.92925 | 151.17150 | 418 ft | 160 kts | 346° |
| 2026-05-01 13:50 | -33.91852 | 151.16855 | 883 ft | 163 kts | 349° |
| 2026-05-01 13:50 | -33.90712 | 151.16536 | 1165 ft | 176 kts | 348° |
| 2026-05-01 13:51 | -33.89453 | 151.16166 | 1371 ft | 196 kts | 347° |
| 2026-05-01 13:51 | -33.88098 | 151.15612 | 1505 ft | 224 kts | 329° |
| 2026-05-01 13:51 | -33.86982 | 151.14175 | 1786 ft | 246 kts | 307° |
| 2026-05-01 13:51 | -33.85941 | 151.12527 | 2437 ft | 249 kts | 313° |
| 2026-05-01 13:52 | -33.84841 | 151.10847 | 2947 ft | 261 kts | 312° |
| 2026-05-01 13:52 | -33.83666 | 151.09154 | 3621 ft | 265 kts | 313° |
| 2026-05-01 13:52 | -33.82449 | 151.07470 | 4184 ft | 270 kts | 316° |
| 2026-05-01 13:52 | -33.81167 | 151.05819 | 5015 ft | 268 kts | 317° |
| 2026-05-01 13:53 | -33.79889 | 151.04220 | 5725 ft | 269 kts | 318° |
| 2026-05-01 13:53 | -33.77786 | 151.01484 | 7102 ft | 263 kts | 313° |
| 2026-05-01 13:53 | -33.76613 | 150.99760 | 7626 ft | 270 kts | 315° |
| 2026-05-01 13:54 | -33.75328 | 150.98043 | 8089 ft | 277 kts | 317° |
| 2026-05-01 13:54 | -33.73988 | 150.96371 | 8731 ft | 279 kts | 317° |
| 2026-05-01 13:54 | -33.72643 | 150.94670 | 9342 ft | 282 kts | 316° |
| 2026-05-01 13:54 | -33.71308 | 150.92947 | 9943 ft | 285 kts | 315° |
| 2026-05-01 13:55 | -33.69957 | 150.91183 | 10504 ft | 289 kts | 315° |
| 2026-05-01 13:55 | -33.68570 | 150.89364 | 10793 ft | 302 kts | 314° |
| 2026-05-01 13:55 | -33.67124 | 150.87460 | 11042 ft | 315 kts | 314° |
| 2026-05-01 13:55 | -33.65617 | 150.85472 | 11283 ft | 327 kts | 314° |
| 2026-05-01 13:56 | -33.64056 | 150.83411 | 11534 ft | 340 kts | 314° |
| 2026-05-01 13:56 | -33.62438 | 150.81275 | 11782 ft | 352 kts | 313° |
| 2026-05-01 13:56 | -33.60764 | 150.79065 | 12015 ft | 364 kts | 313° |
| 2026-05-01 13:56 | -33.59053 | 150.76815 | 12306 ft | 372 kts | 314° |
| 2026-05-01 13:57 | -33.57235 | 150.74578 | 12727 ft | 377 kts | 316° |
| 2026-05-01 13:57 | -33.55321 | 150.72367 | 13169 ft | 382 kts | 317° |
| 2026-05-01 13:57 | -33.53397 | 150.70197 | 13625 ft | 386 kts | 317° |
| 2026-05-01 13:57 | -33.51433 | 150.67985 | 14126 ft | 388 kts | 317° |
| 2026-05-01 13:58 | -33.49455 | 150.65742 | 14561 ft | 392 kts | 317° |
| 2026-05-01 13:58 | -33.47475 | 150.63478 | 15009 ft | 394 kts | 316° |
| 2026-05-01 13:58 | -33.45492 | 150.61198 | 15483 ft | 396 kts | 316° |
| 2026-05-01 13:58 | -33.43519 | 150.58923 | 15918 ft | 399 kts | 316° |
| 2026-05-01 13:59 | -33.41512 | 150.56603 | 16411 ft | 401 kts | 316° |
| 2026-05-01 13:59 | -33.39489 | 150.54267 | 16830 ft | 405 kts | 316° |
| 2026-05-01 13:59 | -33.37450 | 150.51915 | 17281 ft | 408 kts | 316° |
| 2026-05-01 13:59 | -33.35424 | 150.49578 | 17734 ft | 410 kts | 316° |
| 2026-05-01 14:00 | -33.33352 | 150.47190 | 18148 ft | 414 kts | 316° |
| 2026-05-01 14:00 | -33.31276 | 150.44799 | 18603 ft | 416 kts | 315° |
| 2026-05-01 14:00 | -33.29180 | 150.42387 | 18932 ft | 420 kts | 315° |
| 2026-05-01 14:00 | -33.27061 | 150.39950 | 19349 ft | 421 kts | 315° |
| 2026-05-01 14:01 | -33.24943 | 150.37516 | 19822 ft | 422 kts | 315° |
| 2026-05-01 14:01 | -33.22845 | 150.35109 | 20199 ft | 424 kts | 315° |
| 2026-05-01 14:01 | -33.20716 | 150.32668 | 20638 ft | 425 kts | 316° |
| 2026-05-01 14:01 | -33.18571 | 150.30212 | 20968 ft | 429 kts | 316° |
| 2026-05-01 14:02 | -33.16406 | 150.27733 | 21337 ft | 431 kts | 316° |
| 2026-05-01 14:02 | -33.14230 | 150.25243 | 21725 ft | 433 kts | 316° |
| 2026-05-01 14:02 | -33.12056 | 150.22759 | 22102 ft | 434 kts | 316° |
| 2026-05-01 14:02 | -33.09866 | 150.20256 | 22493 ft | 436 kts | 316° |
| 2026-05-01 14:03 | -33.07697 | 150.17779 | 22868 ft | 438 kts | 316° |
| 2026-05-01 14:03 | -33.05491 | 150.15261 | 23258 ft | 439 kts | 316° |
| 2026-05-01 14:03 | -33.03272 | 150.12731 | 23637 ft | 440 kts | 316° |
| 2026-05-01 14:03 | -33.01044 | 150.10193 | 23989 ft | 442 kts | 316° |
| 2026-05-01 14:04 | -32.98818 | 150.07659 | 24267 ft | 444 kts | 316° |
| 2026-05-01 14:04 | -32.96575 | 150.05108 | 24523 ft | 447 kts | 316° |
| 2026-05-01 14:04 | -32.94349 | 150.02577 | 24782 ft | 449 kts | 316° |
| 2026-05-01 14:04 | -32.92084 | 150.00007 | 25035 ft | 451 kts | 316° |
| 2026-05-01 14:05 | -32.89803 | 149.97420 | 25316 ft | 453 kts | 316° |
| 2026-05-01 14:05 | -32.87506 | 149.94814 | 25576 ft | 455 kts | 316° |
| 2026-05-01 14:05 | -32.85234 | 149.92237 | 25806 ft | 457 kts | 315° |
| 2026-05-01 14:05 | -32.82927 | 149.89623 | 26052 ft | 459 kts | 315° |
| 2026-05-01 14:06 | -32.80605 | 149.86995 | 26331 ft | 460 kts | 315° |
| 2026-05-01 14:06 | -32.78279 | 149.84364 | 26627 ft | 461 kts | 315° |
| 2026-05-01 14:06 | -32.75944 | 149.81726 | 26855 ft | 463 kts | 315° |
| 2026-05-01 14:06 | -32.73604 | 149.79092 | 27089 ft | 465 kts | 315° |
| 2026-05-01 14:07 | -32.71280 | 149.76473 | 27325 ft | 466 kts | 315° |
| 2026-05-01 14:07 | -32.68924 | 149.73815 | 27552 ft | 468 kts | 315° |
| 2026-05-01 14:07 | -32.66548 | 149.71134 | 27786 ft | 470 kts | 315° |
| 2026-05-01 14:08 | -32.61784 | 149.65769 | 28238 ft | 473 kts | 315° |
| 2026-05-01 14:08 | -32.59419 | 149.63111 | 28450 ft | 474 kts | 315° |
| 2026-05-01 14:08 | -32.57029 | 149.60390 | 28660 ft | 476 kts | 313° |
| 2026-05-01 14:08 | -32.54828 | 149.57466 | 28985 ft | 473 kts | 308° |
| 2026-05-01 14:09 | -32.52709 | 149.54487 | 29328 ft | 471 kts | 307° |
| 2026-05-01 14:09 | -32.50642 | 149.51521 | 29618 ft | 471 kts | 307° |
| 2026-05-01 14:09 | -32.48572 | 149.48521 | 29898 ft | 470 kts | 307° |
| 2026-05-01 14:09 | -32.46497 | 149.45503 | 30196 ft | 469 kts | 307° |
| 2026-05-01 14:10 | -32.44434 | 149.42504 | 30472 ft | 468 kts | 307° |
| 2026-05-01 14:10 | -32.42372 | 149.39513 | 30697 ft | 468 kts | 307° |
| 2026-05-01 14:10 | -32.40311 | 149.36531 | 30922 ft | 468 kts | 307° |
| 2026-05-01 14:10 | -32.38277 | 149.33593 | 31143 ft | 467 kts | 307° |
| 2026-05-01 14:11 | -32.36212 | 149.30615 | 31366 ft | 467 kts | 307° |
| 2026-05-01 14:11 | -32.32083 | 149.24670 | 31793 ft | 466 kts | 307° |
| 2026-05-01 14:11 | -32.30023 | 149.21708 | 32011 ft | 465 kts | 307° |
| 2026-05-01 14:12 | -32.27968 | 149.18756 | 32217 ft | 465 kts | 307° |
| 2026-05-01 14:12 | -32.25911 | 149.15801 | 32294 ft | 465 kts | 307° |
| 2026-05-01 14:12 | -32.21763 | 149.09856 | 32299 ft | 457 kts | 307° |
| 2026-05-01 14:13 | -32.18387 | 149.05028 | 32304 ft | 457 kts | 307° |
| 2026-05-01 14:13 | -32.13675 | 148.98287 | 32289 ft | 458 kts | 306° |
| 2026-05-01 14:14 | -32.09602 | 148.92467 | 32298 ft | 459 kts | 306° |
| 2026-05-01 14:14 | -32.05182 | 148.87049 | 32299 ft | 464 kts | 318° |
| 2026-05-01 14:15 | -31.99863 | 148.82638 | 32299 ft | 467 kts | 322° |
| 2026-05-01 14:15 | -31.94431 | 148.78470 | 32286 ft | 468 kts | 323° |
| 2026-05-01 14:16 | -31.88954 | 148.74307 | 32279 ft | 467 kts | 323° |
| 2026-05-01 14:16 | -31.83535 | 148.70165 | 32287 ft | 466 kts | 323° |
| 2026-05-01 14:17 | -31.78102 | 148.65998 | 32279 ft | 466 kts | 323° |
| 2026-05-01 14:17 | -31.72674 | 148.61836 | 32275 ft | 466 kts | 323° |
| 2026-05-01 14:18 | -31.67254 | 148.57687 | 32269 ft | 466 kts | 323° |
| 2026-05-01 14:18 | -31.62734 | 148.54233 | 32269 ft | 466 kts | 323° |
| 2026-05-01 14:19 | -31.56386 | 148.49389 | 32261 ft | 466 kts | 323° |
| 2026-05-01 14:19 | -31.50983 | 148.45273 | 32252 ft | 465 kts | 322° |
| 2026-05-01 14:20 | -31.42852 | 148.39089 | 32260 ft | 464 kts | 322° |
| 2026-05-01 14:21 | -31.37450 | 148.34987 | 32253 ft | 464 kts | 323° |
| 2026-05-01 14:21 | -31.32018 | 148.30869 | 32259 ft | 464 kts | 323° |
| 2026-05-01 14:22 | -31.23143 | 148.24161 | 32237 ft | 464 kts | 322° |
| 2026-05-01 14:22 | -31.05440 | 148.10813 | 32254 ft | 472 kts | 322° |
| 2026-05-01 14:23 | -30.94381 | 148.02500 | 32690 ft | 469 kts | 322° |
| 2026-05-01 14:23 | -30.83547 | 147.94374 | 33366 ft | 468 kts | 321° |
| 2026-05-01 14:23 | -30.72618 | 147.86213 | 34263 ft | 462 kts | 321° |
| 2026-05-01 14:23 | -30.61873 | 147.78202 | 34763 ft | 461 kts | 321° |
| 2026-05-01 14:24 | -30.51064 | 147.70168 | 35220 ft | 461 kts | 321° |
| 2026-05-01 14:24 | -30.40163 | 147.62095 | 35232 ft | 463 kts | 321° |
| 2026-05-01 14:24 | -30.17549 | 147.47398 | 35224 ft | 469 kts | 327° |
| 2026-05-01 14:25 | -29.94103 | 147.34382 | 35221 ft | 467 kts | 327° |
| 2026-05-01 14:25 | -29.70602 | 147.21360 | 35219 ft | 467 kts | 327° |
| 2026-05-01 14:26 | -29.35531 | 147.02061 | 35210 ft | 467 kts | 326° |
| 2026-05-01 14:27 | -29.12086 | 146.89244 | 35203 ft | 467 kts | 326° |
| 2026-05-01 14:27 | -28.88578 | 146.76457 | 35201 ft | 466 kts | 326° |
| 2026-05-01 14:28 | -28.66527 | 146.61961 | 35196 ft | 453 kts | 315° |
| 2026-05-01 14:28 | -28.56460 | 146.53341 | 35194 ft | 454 kts | 315° |
| 2026-05-01 14:28 | -28.36175 | 146.36149 | 35190 ft | 454 kts | 315° |
| 2026-05-01 14:29 | -28.15908 | 146.19060 | 35196 ft | 454 kts | 315° |
| 2026-05-01 14:30 | -27.75287 | 145.85057 | 35187 ft | 454 kts | 315° |
| 2026-05-01 14:31 | -27.44850 | 145.59790 | 35178 ft | 454 kts | 316° |
| 2026-05-01 14:31 | -27.24465 | 145.42965 | 35167 ft | 453 kts | 316° |
| 2026-05-01 14:32 | -27.04077 | 145.26219 | 35150 ft | 453 kts | 316° |
| 2026-05-01 14:32 | -26.83684 | 145.09545 | 35156 ft | 455 kts | 316° |
| 2026-05-01 14:33 | -26.63170 | 144.92849 | 35156 ft | 456 kts | 317° |
| 2026-05-01 14:33 | -26.42554 | 144.76148 | 35148 ft | 457 kts | 317° |
| 2026-05-01 14:34 | -26.22133 | 144.59679 | 35134 ft | 455 kts | 317° |
| 2026-05-01 14:34 | -26.01576 | 144.43174 | 35125 ft | 454 kts | 317° |
| 2026-05-01 14:35 | -25.80970 | 144.26711 | 35124 ft | 456 kts | 317° |
| 2026-05-01 14:35 | -25.60307 | 144.10256 | 35117 ft | 455 kts | 317° |
| 2026-05-01 14:36 | -25.39686 | 143.93916 | 35113 ft | 456 kts | 317° |
| 2026-05-01 14:36 | -25.19090 | 143.77666 | 35111 ft | 458 kts | 317° |
| 2026-05-01 14:37 | -24.98319 | 143.61347 | 35102 ft | 458 kts | 318° |
| 2026-05-01 14:37 | -24.77538 | 143.45091 | 35102 ft | 457 kts | 318° |
| 2026-05-01 14:38 | -24.56687 | 143.28846 | 35090 ft | 460 kts | 318° |
| 2026-05-01 14:38 | -24.35808 | 143.12648 | 35089 ft | 459 kts | 318° |
| 2026-05-01 14:39 | -24.15049 | 142.96611 | 35091 ft | 458 kts | 318° |
| 2026-05-01 14:39 | -23.94151 | 142.80529 | 35085 ft | 459 kts | 318° |
| 2026-05-01 14:40 | -23.73251 | 142.64511 | 35080 ft | 458 kts | 319° |
| 2026-05-01 14:40 | -23.52417 | 142.48608 | 35079 ft | 459 kts | 319° |
| 2026-05-01 14:41 | -23.31452 | 142.32666 | 35070 ft | 460 kts | 319° |
| 2026-05-01 14:41 | -23.10438 | 142.16753 | 35064 ft | 460 kts | 319° |
| 2026-05-01 14:42 | -22.92880 | 142.03502 | 35053 ft | 461 kts | 319° |
| 2026-05-01 14:42 | -22.71788 | 141.87641 | 35060 ft | 463 kts | 319° |
| 2026-05-01 14:43 | -22.50452 | 141.71661 | 35061 ft | 464 kts | 319° |
| 2026-05-01 14:43 | -22.29264 | 141.55851 | 35060 ft | 464 kts | 319° |
| 2026-05-01 14:44 | -22.07989 | 141.40035 | 35058 ft | 465 kts | 319° |
| 2026-05-01 14:44 | -21.75954 | 141.16333 | 35057 ft | 466 kts | 320° |
| 2026-05-01 14:45 | -21.43822 | 140.92689 | 35060 ft | 467 kts | 320° |
| 2026-05-01 14:46 | -21.22363 | 140.76974 | 35054 ft | 467 kts | 320° |
| 2026-05-01 14:46 | -20.90192 | 140.53515 | 35046 ft | 468 kts | 320° |
| 2026-05-01 14:47 | -20.68540 | 140.37797 | 35037 ft | 469 kts | 320° |
| 2026-05-01 14:48 | -20.36148 | 140.14384 | 35037 ft | 471 kts | 320° |
| 2026-05-01 14:48 | -20.03549 | 139.90945 | 35017 ft | 471 kts | 321° |
| 2026-05-01 14:49 | -19.60121 | 139.59903 | 35024 ft | 471 kts | 321° |
| 2026-05-01 14:50 | -19.16504 | 139.28936 | 35014 ft | 471 kts | 321° |
| 2026-05-01 14:51 | -18.83918 | 139.05930 | 35009 ft | 472 kts | 321° |
| 2026-05-01 14:52 | -18.51100 | 138.82873 | 35006 ft | 472 kts | 322° |
| 2026-05-01 14:53 | -18.18320 | 138.59949 | 35003 ft | 473 kts | 322° |
| 2026-05-01 14:53 | -17.96370 | 138.44658 | 34993 ft | 473 kts | 322° |
| 2026-05-01 14:54 | -17.74294 | 138.29326 | 35012 ft | 475 kts | 322° |
| 2026-05-01 14:54 | -17.52302 | 138.14097 | 35001 ft | 476 kts | 323° |
| 2026-05-01 14:55 | -17.30166 | 137.98815 | 35008 ft | 476 kts | 323° |
| 2026-05-01 14:55 | -17.08007 | 137.83561 | 35007 ft | 476 kts | 323° |
| 2026-05-01 14:56 | -16.85984 | 137.68444 | 35006 ft | 476 kts | 324° |
| 2026-05-01 14:56 | -16.63781 | 137.53247 | 34999 ft | 477 kts | 324° |
| 2026-05-01 14:57 | -16.41534 | 137.38063 | 34989 ft | 477 kts | 324° |
| 2026-05-01 14:57 | -16.08033 | 137.15277 | 34992 ft | 479 kts | 324° |
| 2026-05-01 14:58 | -15.85734 | 137.00161 | 34985 ft | 479 kts | 325° |
| 2026-05-01 14:58 | -15.63396 | 136.85060 | 34981 ft | 479 kts | 325° |
| 2026-05-01 14:59 | -15.41161 | 136.70068 | 34981 ft | 479 kts | 325° |
| 2026-05-01 14:59 | -15.19508 | 136.54048 | 34980 ft | 478 kts | 322° |
| 2026-05-01 15:00 | -14.87322 | 136.29667 | 34977 ft | 477 kts | 322° |
| 2026-05-01 15:01 | -14.65828 | 136.13443 | 34974 ft | 478 kts | 322° |
| 2026-05-01 15:01 | -14.44453 | 135.97350 | 34974 ft | 478 kts | 322° |
| 2026-05-01 15:02 | -14.22924 | 135.81180 | 34974 ft | 479 kts | 323° |
| 2026-05-01 15:02 | -14.01567 | 135.65178 | 34977 ft | 475 kts | 322° |
| 2026-05-01 15:03 | -13.80210 | 135.49213 | 34979 ft | 470 kts | 322° |
| 2026-05-01 15:03 | -13.58970 | 135.33374 | 34974 ft | 470 kts | 322° |
| 2026-05-01 15:04 | -13.37905 | 135.17700 | 34977 ft | 469 kts | 322° |
| 2026-05-01 15:04 | -13.16725 | 135.01976 | 34977 ft | 470 kts | 323° |
| 2026-05-01 15:05 | -12.95633 | 134.86351 | 34971 ft | 470 kts | 322° |
| 2026-05-01 15:05 | -12.74405 | 134.70658 | 34971 ft | 471 kts | 323° |
| 2026-05-01 15:06 | -12.53097 | 134.54940 | 34964 ft | 472 kts | 323° |
| 2026-05-01 15:06 | -12.31763 | 134.39236 | 34961 ft | 473 kts | 323° |
| 2026-05-01 15:07 | -12.10277 | 134.23452 | 34955 ft | 474 kts | 323° |
| 2026-05-01 15:07 | -11.88891 | 134.07786 | 34944 ft | 475 kts | 323° |
| 2026-05-01 15:08 | -11.67373 | 133.92030 | 34950 ft | 476 kts | 323° |
| 2026-05-01 15:08 | -11.45862 | 133.76322 | 34944 ft | 476 kts | 323° |
| 2026-05-01 15:09 | -11.24380 | 133.60667 | 34944 ft | 476 kts | 323° |
| 2026-05-01 15:09 | -11.02752 | 133.44932 | 34935 ft | 477 kts | 323° |
| 2026-05-01 15:10 | -10.81142 | 133.29241 | 34936 ft | 477 kts | 323° |
| 2026-05-01 15:10 | -10.48638 | 133.05696 | 34938 ft | 477 kts | 323° |
| 2026-05-01 15:11 | -10.16254 | 132.82292 | 34929 ft | 477 kts | 323° |
| 2026-05-01 15:12 | -9.94497 | 132.66605 | 34928 ft | 478 kts | 323° |
| 2026-05-01 15:12 | -9.62035 | 132.43249 | 34927 ft | 479 kts | 324° |
| 2026-05-01 15:14 | -9.07752 | 132.04314 | 34924 ft | 477 kts | 324° |
| 2026-05-01 15:14 | -8.75219 | 131.81046 | 34921 ft | 476 kts | 325° |
| 2026-05-01 15:15 | -8.31787 | 131.50075 | 34929 ft | 477 kts | 325° |
| 2026-05-01 15:16 | -7.88506 | 131.19270 | 34923 ft | 480 kts | 325° |
| 2026-05-01 15:18 | -7.33932 | 130.80500 | 34915 ft | 479 kts | 326° |
| 2026-05-01 15:19 | -6.90173 | 130.49502 | 34911 ft | 483 kts | 326° |
| 2026-05-01 15:19 | -6.57192 | 130.26185 | 34911 ft | 484 kts | 326° |
| 2026-05-01 15:20 | -6.24036 | 130.02783 | 34911 ft | 485 kts | 326° |
| 2026-05-01 15:21 | -6.02036 | 129.87275 | 34906 ft | 486 kts | 326° |
| 2026-05-01 15:21 | -5.79827 | 129.71637 | 34905 ft | 486 kts | 325° |
| 2026-05-01 15:22 | -5.46662 | 129.48311 | 34905 ft | 486 kts | 326° |
| 2026-05-01 15:22 | -5.24449 | 129.32707 | 34906 ft | 486 kts | 326° |
| 2026-05-01 15:23 | -5.02369 | 129.17210 | 34903 ft | 486 kts | 326° |
| 2026-05-01 15:23 | -4.80171 | 129.01642 | 34903 ft | 486 kts | 326° |
| 2026-05-01 15:24 | -4.57974 | 128.86089 | 34905 ft | 486 kts | 326° |
| 2026-05-01 15:24 | -4.35853 | 128.70602 | 34906 ft | 488 kts | 326° |
| 2026-05-01 15:25 | -4.13530 | 128.54983 | 34907 ft | 489 kts | 326° |
| 2026-05-01 15:25 | -3.91158 | 128.39340 | 34889 ft | 490 kts | 326° |
| 2026-05-01 15:26 | -3.68765 | 128.23694 | 34884 ft | 490 kts | 326° |
| 2026-05-01 15:26 | -3.57621 | 128.16096 | 35241 ft | 488 kts | 330° |
| 2026-05-01 15:26 | -3.45831 | 128.09392 | 35884 ft | 487 kts | 331° |
| 2026-05-01 15:27 | -3.22380 | 127.95703 | 35900 ft | 487 kts | 330° |
| 2026-05-01 15:28 | -2.87413 | 127.75237 | 35899 ft | 487 kts | 330° |
| 2026-05-01 15:28 | -2.67928 | 127.63840 | 35898 ft | 487 kts | 330° |
| 2026-05-01 15:29 | -2.29178 | 127.41186 | 35901 ft | 486 kts | 330° |
| 2026-05-01 15:30 | -1.90152 | 127.18384 | 35899 ft | 487 kts | 330° |
| 2026-05-01 15:31 | -1.16133 | 126.75169 | 35903 ft | 487 kts | 330° |
| 2026-05-01 15:32 | -0.69186 | 126.47774 | 35899 ft | 488 kts | 329° |
| 2026-05-01 15:34 | 0.01226 | 126.06699 | 35901 ft | 489 kts | 330° |